Time;durP1;ratioP1;P1;durP2;ratioP2;P2;SDS_P1;SDS_P2;PMS_P1;PMS_P2;Temp;Humidity;BMP_temperature;BMP_pressure;BME280_temperature;BME280_humidity;BME280_pressure;Samples;Min_cycle;Max_cycle;Signal;HPM_P1;HPM_P2
2022/08/28 00:00:09;;;;;;;32.93;27.37;;;18.50;99.90;;;;;;5018607;28;20453;-81
2022/08/28 00:02:36;;;;;;;40.57;32.73;;;18.60;99.90;;;;;;5018278;28;20474;-82
2022/08/28 00:05:05;;;;;;;33.33;28.60;;;18.60;99.90;;;;;;5018381;28;20448;-80
2022/08/28 00:07:32;;;;;;;39.20;31.03;;;18.60;99.90;;;;;;5017449;28;20465;-81
2022/08/28 00:09:58;;;;;;;38.53;29.87;;;18.60;99.90;;;;;;5017856;28;20456;-81
2022/08/28 00:12:25;;;;;;;36.70;30.60;;;18.60;99.90;;;;;;5018488;28;20473;-80
2022/08/28 00:14:54;;;;;;;35.10;29.40;;;18.70;99.90;;;;;;5017929;28;20521;-81
2022/08/28 00:17:20;;;;;;;36.23;29.93;;;18.70;99.90;;;;;;5017841;28;20816;-81
2022/08/28 00:19:47;;;;;;;34.77;29.67;;;18.70;99.90;;;;;;5017299;28;20460;-81
2022/08/28 00:22:14;;;;;;;32.60;27.80;;;18.70;99.90;;;;;;5017978;28;20479;-81
2022/08/28 00:24:43;;;;;;;34.63;28.23;;;18.70;99.90;;;;;;5018131;28;20489;-81
2022/08/28 00:29:56;;;;;;;35.10;27.03;;;18.70;99.90;;;;;;5017774;28;20440;-81
2022/08/28 00:32:24;;;;;;;33.17;27.47;;;18.70;99.90;;;;;;5017661;28;20474;-81
2022/08/28 00:34:52;;;;;;;29.83;26.70;;;18.70;99.90;;;;;;5018017;28;20524;-81
2022/08/28 00:37:18;;;;;;;33.50;29.60;;;18.70;99.90;;;;;;5023533;28;20521;-78
2022/08/28 00:39:46;;;;;;;31.83;28.47;;;18.80;99.90;;;;;;5034227;28;20449;-78
2022/08/28 00:42:13;;;;;;;30.00;26.87;;;18.80;99.90;;;;;;5026971;28;20893;-82
2022/08/28 00:44:40;;;;;;;32.10;27.60;;;18.80;99.90;;;;;;5018668;28;20489;-80
2022/08/28 00:47:08;;;;;;;30.83;27.47;;;18.70;99.90;;;;;;5017426;28;20932;-82
2022/08/28 00:49:39;;;;;;;34.80;29.90;;;18.70;99.90;;;;;;5017531;28;20457;-81
2022/08/28 00:52:07;;;;;;;29.23;26.10;;;18.60;99.90;;;;;;5017473;28;20854;-81
2022/08/28 00:54:36;;;;;;;30.00;26.87;;;18.70;99.90;;;;;;5017294;28;20536;-82
2022/08/28 00:57:06;;;;;;;31.27;27.97;;;18.70;99.90;;;;;;5017156;28;20457;-81
2022/08/28 00:59:35;;;;;;;32.60;26.63;;;18.70;99.90;;;;;;5017089;28;20459;-81
2022/08/28 01:02:01;;;;;;;33.43;27.47;;;18.70;99.90;;;;;;5017744;28;20473;-82
2022/08/28 01:04:32;;;;;;;32.00;27.50;;;18.60;99.90;;;;;;5017233;28;20491;-81
2022/08/28 01:07:04;;;;;;;27.23;24.43;;;18.70;99.90;;;;;;5017110;28;20461;-81
2022/08/28 01:09:32;;;;;;;34.57;28.53;;;18.80;99.90;;;;;;5017295;28;20537;-80
2022/08/28 01:12:03;;;;;;;30.40;26.73;;;18.80;99.90;;;;;;5017254;28;20483;-80
2022/08/28 01:14:31;;;;;;;32.87;28.57;;;18.90;99.90;;;;;;5017440;28;20429;-82
2022/08/28 01:16:59;;;;;;;35.67;30.07;;;18.90;99.90;;;;;;5016978;28;20457;-81
2022/08/28 01:19:32;;;;;;;30.13;27.03;;;18.90;99.90;;;;;;5017805;28;20948;-82
2022/08/28 01:22:09;;;;;;;35.10;30.60;;;19.00;99.90;;;;;;5017321;28;20473;-82
2022/08/28 01:24:39;;;;;;;28.97;24.83;;;18.90;99.90;;;;;;5017007;28;20484;-82
2022/08/28 01:27:06;;;;;;;28.40;25.30;;;18.90;99.90;;;;;;5017016;28;20454;-81
2022/08/28 01:29:33;;;;;;;29.63;26.50;;;19.00;99.90;;;;;;5017177;28;20450;-81
2022/08/28 01:32:00;;;;;;;29.70;25.47;;;19.10;99.90;;;;;;5017301;28;20500;-81
2022/08/28 01:34:26;;;;;;;26.93;24.07;;;19.20;99.90;;;;;;5017621;28;20549;-82
2022/08/28 01:36:53;;;;;;;32.20;27.67;;;19.20;99.90;;;;;;5017414;28;20460;-81
2022/08/28 01:42:44;;;;;;;27.67;24.77;;;19.20;99.90;;;;;;5016391;28;20421;-80
2022/08/28 01:45:13;;;;;;;28.47;24.07;;;19.20;99.90;;;;;;5017103;28;20504;-82
2022/08/28 01:47:42;;;;;;;30.60;25.73;;;19.10;99.90;;;;;;5017451;28;20463;-81
2022/08/28 01:50:10;;;;;;;26.03;23.30;;;19.00;99.90;;;;;;5017315;28;20464;-81
2022/08/28 01:52:38;;;;;;;30.37;27.07;;;19.00;99.90;;;;;;5016775;28;20477;-82
2022/08/28 01:55:06;;;;;;;29.23;24.73;;;19.00;99.90;;;;;;5016897;28;20453;-81
2022/08/28 01:57:33;;;;;;;31.30;26.20;;;19.00;99.90;;;;;;5017230;28;20463;-81
2022/08/28 02:00:02;;;;;;;27.57;24.73;;;19.00;99.90;;;;;;5017269;28;20483;-80
2022/08/28 02:02:30;;;;;;;28.20;24.30;;;19.00;99.90;;;;;;5017124;28;20961;-83
2022/08/28 02:04:57;;;;;;;29.83;26.63;;;19.00;99.90;;;;;;5016852;28;20496;-83
2022/08/28 02:07:23;;;;;;;32.80;27.23;;;19.00;99.90;;;;;;5016773;28;20794;-83
2022/08/28 02:09:50;;;;;;;29.27;26.27;;;18.90;99.90;;;;;;5018400;28;20458;-83
2022/08/28 02:12:17;;;;;;;31.77;25.93;;;18.90;99.90;;;;;;5020260;28;20504;-81
2022/08/28 02:14:44;;;;;;;30.40;26.27;;;18.80;99.90;;;;;;5020636;28;20453;-81
2022/08/28 02:17:12;;;;;;;35.33;27.37;;;18.70;99.90;;;;;;5020593;28;20469;-80
2022/08/28 02:19:39;;;;;;;31.73;28.37;;;18.60;99.90;;;;;;5020759;28;20845;-80
2022/08/28 02:22:08;;;;;;;33.33;28.00;;;18.60;99.90;;;;;;5020716;28;20479;-81
2022/08/28 02:24:35;;;;;;;36.50;29.97;;;18.50;99.90;;;;;;5020791;28;20850;-81
2022/08/28 02:27:02;;;;;;;35.57;27.00;;;18.50;99.90;;;;;;5021574;28;20461;-81
2022/08/28 02:29:29;;;;;;;34.77;28.40;;;18.40;99.90;;;;;;5021001;28;20710;-81
2022/08/28 02:31:55;;;;;;;35.03;29.47;;;18.50;99.90;;;;;;5020126;28;20483;-81
2022/08/28 02:34:23;;;;;;;32.77;26.60;;;18.50;99.90;;;;;;5020920;28;20452;-81
2022/08/28 02:36:50;;;;;;;35.50;29.47;;;18.50;99.90;;;;;;5020295;28;20461;-81
2022/08/28 02:39:17;;;;;;;35.53;28.60;;;18.50;99.90;;;;;;5020298;28;20461;-81
2022/08/28 02:41:44;;;;;;;37.10;30.53;;;18.50;99.90;;;;;;5019912;28;20469;-81
2022/08/28 02:44:10;;;;;;;36.27;29.83;;;18.50;99.90;;;;;;5020068;28;21030;-81
2022/08/28 02:46:37;;;;;;;37.80;31.43;;;18.60;99.90;;;;;;5020670;28;20457;-81
2022/08/28 02:49:04;;;;;;;39.00;29.50;;;18.60;99.90;;;;;;5020142;28;20799;-81
2022/08/28 02:51:33;;;;;;;37.00;30.70;;;18.60;99.90;;;;;;5021311;28;20476;-81
2022/08/28 02:54:00;;;;;;;39.00;30.20;;;18.60;99.90;;;;;;5022949;28;20457;-81
2022/08/28 02:56:27;;;;;;;41.00;29.90;;;18.70;99.90;;;;;;5023919;28;20453;-81
2022/08/28 02:58:54;;;;;;;36.50;30.77;;;18.80;99.90;;;;;;5035196;28;20453;-77
2022/08/28 03:01:21;;;;;;;37.13;30.33;;;18.80;99.90;;;;;;5036188;28;20465;-80
2022/08/28 03:03:48;;;;;;;34.10;29.17;;;18.80;99.90;;;;;;5021464;28;20491;-81
2022/08/28 03:06:15;;;;;;;39.20;32.70;;;18.80;99.90;;;;;;5020760;28;20458;-81
2022/08/28 03:08:45;;;;;;;35.00;30.97;;;18.90;99.90;;;;;;5020336;28;20818;-81
2022/08/28 03:11:12;;;;;;;36.67;30.50;;;18.90;99.90;;;;;;5021098;28;20461;-81
2022/08/28 03:13:38;;;;;;;34.83;29.97;;;18.90;99.90;;;;;;5020354;28;20453;-80
2022/08/28 03:16:05;;;;;;;49.00;30.13;;;18.90;99.90;;;;;;5020542;28;20459;-82
2022/08/28 03:18:33;;;;;;;36.03;29.93;;;18.90;99.90;;;;;;5019904;28;20457;-82
2022/08/28 03:21:00;;;;;;;38.23;29.40;;;19.00;99.90;;;;;;5018790;28;20961;-81
2022/08/28 03:23:26;;;;;;;36.70;30.93;;;18.90;99.90;;;;;;5020511;28;20453;-81
2022/08/28 03:25:56;;;;;;;38.90;31.87;;;19.00;99.90;;;;;;5020258;28;20454;-81
2022/08/28 03:28:23;;;;;;;37.43;28.33;;;19.00;99.90;;;;;;5020283;28;20217;-81
2022/08/28 03:30:50;;;;;;;34.27;29.03;;;19.00;99.90;;;;;;5019849;28;20461;-80
2022/08/28 03:33:17;;;;;;;35.10;30.37;;;19.10;99.90;;;;;;5019832;28;20481;-80
2022/08/28 03:35:44;;;;;;;35.57;29.40;;;19.10;99.90;;;;;;5019899;28;20460;-81
2022/08/28 03:38:11;;;;;;;37.57;29.60;;;19.20;99.90;;;;;;5019283;28;20553;-79
2022/08/28 03:40:41;;;;;;;32.70;26.97;;;19.20;99.90;;;;;;5019733;28;20452;-81
2022/08/28 03:43:10;;;;;;;36.30;29.07;;;19.20;99.90;;;;;;5019016;28;20486;-81
2022/08/28 03:45:37;;;;;;;35.83;28.97;;;19.20;99.90;;;;;;5018514;28;20547;-79
2022/08/28 03:48:04;;;;;;;36.23;28.00;;;19.20;99.90;;;;;;5019422;28;20479;-81
2022/08/28 03:50:33;;;;;;;33.50;27.07;;;19.20;99.90;;;;;;5018810;28;20472;-80
2022/08/28 03:53:00;;;;;;;35.10;28.23;;;19.10;99.90;;;;;;5020040;28;20480;-81
2022/08/28 03:55:27;;;;;;;30.63;27.03;;;19.00;99.90;;;;;;5019352;28;20449;-79
2022/08/28 03:57:54;;;;;;;33.27;27.60;;;19.00;99.90;;;;;;5018734;28;20457;-80
2022/08/28 04:00:22;;;;;;;34.13;27.63;;;18.90;99.90;;;;;;5019074;28;20793;-80
2022/08/28 04:02:50;;;;;;;32.60;27.93;;;18.90;99.90;;;;;;5019142;28;20477;-80
2022/08/28 04:05:17;;;;;;;36.83;27.10;;;18.90;99.90;;;;;;5018988;28;20539;-79
2022/08/28 04:07:44;;;;;;;36.97;31.17;;;18.90;99.90;;;;;;5018839;28;20450;-80
2022/08/28 04:10:11;;;;;;;32.73;29.23;;;18.80;99.90;;;;;;5019465;28;20804;-80
2022/08/28 04:12:38;;;;;;;34.00;29.13;;;18.80;99.90;;;;;;5019487;28;20532;-79
2022/08/28 04:15:06;;;;;;;33.67;28.20;;;18.80;99.90;;;;;;5019223;28;20438;-80
2022/08/28 04:17:36;;;;;;;38.77;28.97;;;18.80;99.90;;;;;;5019488;28;20453;-80
2022/08/28 04:20:04;;;;;;;36.87;29.23;;;18.80;99.90;;;;;;5018938;28;20936;-80
2022/08/28 04:22:31;;;;;;;33.63;27.27;;;18.80;99.90;;;;;;5018334;28;20501;-80
2022/08/28 04:24:58;;;;;;;33.63;27.63;;;18.80;99.90;;;;;;5018488;28;20517;-81
2022/08/28 04:27:25;;;;;;;32.30;28.80;;;18.80;99.90;;;;;;5018245;28;20463;-81
2022/08/28 04:29:52;;;;;;;33.90;28.80;;;18.90;99.90;;;;;;5018802;28;20457;-79
2022/08/28 04:32:18;;;;;;;33.70;28.03;;;18.90;99.90;;;;;;5018501;28;20851;-81
2022/08/28 04:34:46;;;;;;;33.33;28.00;;;18.90;99.90;;;;;;5018300;28;20446;-81
2022/08/28 04:37:13;;;;;;;30.30;27.13;;;18.90;99.90;;;;;;5019012;28;20457;-80
2022/08/28 04:39:40;;;;;;;31.70;24.33;;;19.00;99.90;;;;;;5018024;28;20453;-80
2022/08/28 04:42:06;;;;;;;34.77;25.97;;;18.90;99.90;;;;;;5019074;28;20477;-80
2022/08/28 04:44:33;;;;;;;28.30;25.33;;;19.00;99.90;;;;;;5018805;28;20485;-80
2022/08/28 04:47:00;;;;;;;35.37;28.20;;;19.00;99.90;;;;;;5018290;28;20459;-80
2022/08/28 04:49:27;;;;;;;30.20;26.30;;;19.00;99.90;;;;;;5018217;28;20454;-81
2022/08/28 04:51:55;;;;;;;30.30;24.40;;;19.00;99.90;;;;;;5018137;28;20476;-81
2022/08/28 04:54:22;;;;;;;31.73;28.53;;;19.00;99.90;;;;;;5018307;28;20456;-80
2022/08/28 04:56:49;;;;;;;28.77;25.70;;;19.10;99.90;;;;;;5017601;28;20463;-79
2022/08/28 04:59:16;;;;;;;29.57;25.17;;;19.10;99.90;;;;;;5017997;28;20464;-80
2022/08/28 05:01:43;;;;;;;27.73;24.50;;;18.90;99.90;;;;;;5018249;28;20481;-79
2022/08/28 05:04:11;;;;;;;27.87;24.87;;;18.90;99.90;;;;;;5018117;28;20453;-80
2022/08/28 05:06:42;;;;;;;28.30;23.70;;;18.90;99.90;;;;;;5017917;28;20456;-81
2022/08/28 05:09:10;;;;;;;31.37;27.10;;;18.90;99.90;;;;;;5017955;28;20480;-81
2022/08/28 05:11:37;;;;;;;30.77;26.60;;;18.90;99.90;;;;;;5018108;28;20477;-79
2022/08/28 05:14:05;;;;;;;32.90;25.17;;;18.90;99.90;;;;;;5018220;28;20464;-80
2022/08/28 05:16:33;;;;;;;27.93;25.00;;;18.90;99.90;;;;;;5018294;28;20460;-80
2022/08/28 05:19:00;;;;;;;30.63;25.10;;;19.00;99.90;;;;;;5017596;28;20978;-79
2022/08/28 05:21:27;;;;;;;29.90;24.57;;;19.10;99.90;;;;;;5018025;28;20477;-81
2022/08/28 05:23:56;;;;;;;33.53;24.20;;;19.10;99.90;;;;;;5018084;28;20942;-81
2022/08/28 05:26:25;;;;;;;29.17;23.57;;;19.20;99.90;;;;;;5017820;28;20846;-80
2022/08/28 05:28:54;;;;;;;26.53;22.77;;;19.20;99.90;;;;;;5017971;28;20457;-81
2022/08/28 05:31:22;;;;;;;28.80;25.80;;;19.20;99.90;;;;;;5017812;28;20477;-80
2022/08/28 05:33:50;;;;;;;29.20;25.03;;;19.20;99.90;;;;;;5018018;28;20461;-80
2022/08/28 05:36:18;;;;;;;31.37;25.70;;;19.30;99.90;;;;;;5018709;28;20448;-81
2022/08/28 05:38:45;;;;;;;27.13;24.07;;;19.30;99.90;;;;;;5017726;28;20520;-80
2022/08/28 05:41:17;;;;;;;26.57;23.80;;;19.30;99.90;;;;;;5017940;28;20457;-79
2022/08/28 05:43:46;;;;;;;25.97;23.40;;;19.40;99.90;;;;;;5017662;28;20491;-80
2022/08/28 05:46:14;;;;;;;27.27;23.47;;;19.40;99.90;;;;;;5021303;28;20499;-81
2022/08/28 05:48:42;;;;;;;28.10;24.13;;;19.40;99.90;;;;;;5021280;28;20457;-80
2022/08/28 05:51:11;;;;;;;28.73;24.47;;;19.50;99.90;;;;;;5021632;28;20453;-81
2022/08/28 05:53:42;;;;;;;24.17;21.20;;;19.40;99.90;;;;;;5021279;28;20441;-81
2022/08/28 05:56:11;;;;;;;25.97;23.30;;;19.40;99.90;;;;;;5021092;28;20820;-81
2022/08/28 05:58:39;;;;;;;25.70;21.73;;;19.50;99.90;;;;;;5021143;28;20952;-81
2022/08/28 06:01:10;;;;;;;28.53;25.20;;;19.50;99.90;;;;;;5021366;28;20457;-80
2022/08/28 06:03:38;;;;;;;29.07;26.07;;;19.40;99.90;;;;;;5021186;28;20460;-81
2022/08/28 06:06:05;;;;;;;30.10;24.93;;;19.50;99.90;;;;;;5020716;28;20925;-81
2022/08/28 06:08:32;;;;;;;27.53;24.57;;;19.50;99.90;;;;;;5021310;28;20446;-81
2022/08/28 06:11:00;;;;;;;26.30;23.20;;;19.50;99.90;;;;;;5021024;28;20801;-81
2022/08/28 06:13:28;;;;;;;25.87;23.17;;;19.60;99.90;;;;;;5021270;28;20855;-80
2022/08/28 06:15:56;;;;;;;25.70;22.43;;;19.70;99.90;;;;;;5021705;28;20453;-81
2022/08/28 06:18:25;;;;;;;26.93;23.23;;;19.70;99.90;;;;;;5020516;28;20515;-79
2022/08/28 06:20:52;;;;;;;24.93;22.37;;;19.70;99.90;;;;;;5020594;28;20453;-81
2022/08/28 06:23:21;;;;;;;25.60;22.50;;;19.80;99.90;;;;;;5020795;28;20480;-81
2022/08/28 06:25:50;;;;;;;27.80;20.63;;;19.90;99.90;;;;;;5020700;28;20512;-80
2022/08/28 06:28:20;;;;;;;26.23;23.43;;;20.00;99.90;;;;;;5020166;28;20456;-80
2022/08/28 06:30:47;;;;;;;22.90;19.00;;;20.00;99.90;;;;;;5020616;28;20956;-81
2022/08/28 06:33:16;;;;;;;23.43;21.07;;;20.10;99.90;;;;;;5020680;28;20529;-81
2022/08/28 06:35:47;;;;;;;22.07;19.80;;;20.10;99.90;;;;;;5020855;28;20478;-79
2022/08/28 06:38:15;;;;;;;19.87;17.77;;;20.10;99.90;;;;;;5021050;28;20456;-79
2022/08/28 06:40:44;;;;;;;32.80;29.33;;;20.20;99.90;;;;;;5020856;28;20515;-80
2022/08/28 06:43:11;;;;;;;24.23;20.63;;;20.10;99.90;;;;;;5017157;28;20469;-78
2022/08/28 06:45:40;;;;;;;25.00;22.40;;;20.10;99.90;;;;;;5016631;28;20868;-78
2022/08/28 06:48:07;;;;;;;22.03;19.77;;;20.10;99.90;;;;;;5018535;28;20464;-80
2022/08/28 06:50:39;;;;;;;79.80;72.03;;;20.20;99.90;;;;;;5021919;28;20469;-81
2022/08/28 06:53:08;;;;;;;23.20;21.03;;;20.30;99.90;;;;;;5019835;28;20463;-78
2022/08/28 06:55:35;;;;;;;19.17;17.40;;;20.30;99.90;;;;;;5017578;28;20492;-80
2022/08/28 06:58:02;;;;;;;26.27;23.30;;;20.30;99.90;;;;;;5020069;28;20454;-78
2022/08/28 07:00:29;;;;;;;25.23;22.73;;;20.30;99.90;;;;;;5019792;28;20461;-79
2022/08/28 07:02:56;;;;;;;22.50;20.20;;;20.30;99.90;;;;;;5020035;28;20479;-78
2022/08/28 07:05:22;;;;;;;24.67;21.77;;;20.50;99.90;;;;;;5018878;28;20477;-80
2022/08/28 07:07:50;;;;;;;22.33;20.00;;;20.50;99.90;;;;;;5021506;28;20450;-80
2022/08/28 07:10:18;;;;;;;26.80;24.20;;;20.50;99.90;;;;;;5021325;28;20824;-79
2022/08/28 07:12:45;;;;;;;23.90;20.03;;;20.50;99.90;;;;;;5018661;28;20477;-80
2022/08/28 07:15:12;;;;;;;21.73;19.17;;;20.50;99.90;;;;;;5019247;28;20450;-80
2022/08/28 07:17:39;;;;;;;23.77;20.33;;;20.60;99.90;;;;;;5019016;28;20823;-82
2022/08/28 07:20:06;;;;;;;19.90;17.93;;;20.60;99.90;;;;;;5018867;28;20450;-81
2022/08/28 07:22:33;;;;;;;22.50;20.13;;;20.50;99.90;;;;;;5021441;28;20481;-83
2022/08/28 07:24:59;;;;;;;21.40;18.77;;;20.50;99.90;;;;;;5020909;28;20516;-81
2022/08/28 07:27:27;;;;;;;20.83;18.50;;;20.40;99.90;;;;;;5021257;28;20458;-83
2022/08/28 07:29:54;;;;;;;24.43;20.50;;;20.50;99.90;;;;;;5021533;28;20461;-83
2022/08/28 07:32:21;;;;;;;23.67;19.83;;;20.50;99.90;;;;;;5021103;28;20477;-79
2022/08/28 07:34:48;;;;;;;19.23;17.20;;;20.60;99.90;;;;;;5021039;28;20450;-81
2022/08/28 07:37:15;;;;;;;19.53;17.67;;;20.70;99.90;;;;;;5022359;28;20448;-82
2022/08/28 07:39:42;;;;;;;22.03;18.20;;;20.80;99.90;;;;;;5022579;28;20453;-79
2022/08/28 07:42:09;;;;;;;21.80;19.17;;;21.00;99.90;;;;;;5021874;28;20472;-79
2022/08/28 07:44:49;;;;;;;18.40;16.60;;;21.10;99.90;;;;;;5021602;28;20463;-78
2022/08/28 07:47:18;;;;;;;17.60;15.90;;;21.20;99.90;;;;;;5022521;28;20522;-79
2022/08/28 07:49:45;;;;;;;17.67;16.07;;;21.20;99.90;;;;;;5022165;28;20459;-79
2022/08/28 07:52:12;;;;;;;17.03;15.40;;;21.20;99.90;;;;;;5021457;28;20464;-79
2022/08/28 07:54:39;;;;;;;19.07;17.10;;;21.20;99.90;;;;;;5021666;28;20457;-81
2022/08/28 07:57:08;;;;;;;18.60;16.20;;;21.30;99.90;;;;;;5021812;28;20812;-79
2022/08/28 07:59:36;;;;;;;18.73;15.73;;;21.20;99.90;;;;;;5021792;28;20505;-79
2022/08/28 08:02:03;;;;;;;17.07;15.53;;;21.30;99.90;;;;;;5022270;28;20474;-79
2022/08/28 08:04:30;;;;;;;15.77;14.20;;;21.50;99.90;;;;;;5022381;28;20454;-79
2022/08/28 08:06:57;;;;;;;18.77;16.80;;;21.60;99.90;;;;;;5021771;28;20851;-79
2022/08/28 08:09:23;;;;;;;18.20;16.40;;;21.70;99.90;;;;;;5021153;28;20480;-79
2022/08/28 08:11:50;;;;;;;15.80;14.20;;;21.70;99.90;;;;;;5021006;28;20483;-79
2022/08/28 08:14:17;;;;;;;16.20;14.80;;;21.70;99.90;;;;;;5020382;28;20455;-79
2022/08/28 08:16:47;;;;;;;18.70;16.80;;;21.60;99.90;;;;;;5019759;28;20447;-82
2022/08/28 08:19:15;;;;;;;18.50;16.77;;;21.80;99.90;;;;;;5017881;28;20459;-81
2022/08/28 08:21:43;;;;;;;35.80;32.43;;;21.80;99.90;;;;;;5018539;28;20476;-82
2022/08/28 08:24:11;;;;;;;45.00;40.67;;;22.00;99.90;;;;;;5018174;28;20470;-81
2022/08/28 08:26:44;;;;;;;32.03;28.47;;;21.90;99.90;;;;;;5017972;28;20483;-81
2022/08/28 08:29:11;;;;;;;20.93;18.77;;;22.10;99.90;;;;;;5017758;28;20957;-81
2022/08/28 08:31:39;;;;;;;18.30;16.50;;;22.30;99.90;;;;;;5019010;28;20515;-82
2022/08/28 08:34:07;;;;;;;15.47;14.07;;;22.40;99.90;;;;;;5019559;28;20452;-81
2022/08/28 08:36:36;;;;;;;15.20;13.70;;;22.50;99.90;;;;;;5019312;28;20503;-81
2022/08/28 08:39:05;;;;;;;27.30;25.13;;;22.70;99.90;;;;;;5019252;28;20450;-82
2022/08/28 08:41:38;;;;;;;17.40;15.90;;;22.80;99.90;;;;;;5020216;28;20481;-81
2022/08/28 08:44:10;;;;;;;34.27;30.77;;;22.80;99.90;;;;;;5022069;28;20472;-82
2022/08/28 08:46:40;;;;;;;17.00;15.20;;;23.00;99.90;;;;;;5023957;28;20496;-81
2022/08/28 08:49:16;;;;;;;16.93;15.13;;;23.10;99.90;;;;;;5021751;28;20453;-81
2022/08/28 08:51:46;;;;;;;13.00;11.80;;;23.30;99.90;;;;;;5022103;28;20476;-82
2022/08/28 08:54:18;;;;;;;13.40;12.20;;;23.50;99.90;;;;;;5021092;28;20454;-82
2022/08/28 08:56:46;;;;;;;13.90;12.70;;;23.80;99.90;;;;;;5021070;28;20942;-79
2022/08/28 08:59:16;;;;;;;14.80;13.27;;;24.00;99.90;;;;;;5020372;28;20524;-79
2022/08/28 09:01:49;;;;;;;17.80;16.20;;;24.20;99.90;;;;;;5020996;28;20466;-79
2022/08/28 09:04:31;;;;;;;13.57;12.37;;;24.30;99.90;;;;;;5020787;28;21015;-79
2022/08/28 09:07:01;;;;;;;15.70;14.30;;;24.30;99.90;;;;;;5020106;28;20486;-79
2022/08/28 09:09:31;;;;;;;16.37;14.73;;;24.20;99.90;;;;;;5021885;28;20450;-80
2022/08/28 09:12:02;;;;;;;16.43;15.07;;;24.00;99.90;;;;;;5021285;28;20477;-79
2022/08/28 09:14:49;;;;;;;15.83;14.23;;;23.60;99.90;;;;;;5022822;28;20506;-79
2022/08/28 09:17:19;;;;;;;15.63;13.93;;;23.10;99.90;;;;;;5022527;28;20445;-80
2022/08/28 09:19:48;;;;;;;15.10;13.83;;;22.90;99.90;;;;;;5021102;28;20497;-79
2022/08/28 09:22:15;;;;;;;16.30;13.90;;;22.70;99.90;;;;;;5021986;28;20470;-78
2022/08/28 09:24:42;;;;;;;15.63;14.03;;;22.80;99.90;;;;;;5022125;28;20894;-79
2022/08/28 09:27:23;;;;;;;15.87;14.47;;;22.80;99.90;;;;;;5021637;28;20486;-78
2022/08/28 09:29:56;;;;;;;16.97;15.47;;;23.00;99.90;;;;;;5021337;28;20456;-79
2022/08/28 09:32:29;;;;;;;16.03;14.30;;;23.00;99.90;;;;;;5020436;28;20484;-77
2022/08/28 09:35:11;;;;;;;15.20;13.80;;;22.90;99.90;;;;;;5020931;28;20450;-79
2022/08/28 09:37:39;;;;;;;14.30;13.10;;;23.10;99.90;;;;;;5020385;28;20454;-78
2022/08/28 09:40:22;;;;;;;14.80;13.57;;;23.20;99.90;;;;;;5021554;28;20454;-80
2022/08/28 09:45:54;;;;;;;12.73;11.53;;;23.50;99.90;;;;;;5023383;28;20493;-82
2022/08/28 09:48:22;;;;;;;18.80;17.20;;;23.60;99.90;;;;;;5020170;28;20458;-82
2022/08/28 09:51:02;;;;;;;15.13;13.67;;;23.70;99.90;;;;;;5022899;28;20450;-80
2022/08/28 09:53:30;;;;;;;14.07;12.77;;;23.70;99.90;;;;;;5022571;28;20473;-79
2022/08/28 09:56:09;;;;;;;13.93;12.63;;;23.80;99.90;;;;;;5020117;28;20454;-84
2022/08/28 09:58:39;;;;;;;14.10;12.77;;;23.90;99.90;;;;;;5024738;28;20882;-80
2022/08/28 10:01:21;;;;;;;12.87;11.37;;;24.00;99.90;;;;;;5023702;28;20447;-80
2022/08/28 10:03:56;;;;;;;12.53;11.50;;;24.10;99.90;;;;;;5023635;28;20450;-79
2022/08/28 10:06:30;;;;;;;83.57;76.37;;;24.20;99.90;;;;;;5020355;28;20489;-82
2022/08/28 10:09:05;;;;;;;17.10;15.50;;;24.30;99.90;;;;;;5016870;28;20457;-81
2022/08/28 10:11:40;;;;;;;14.30;13.00;;;24.40;99.90;;;;;;5023924;28;20470;-80
2022/08/28 10:14:16;;;;;;;13.63;12.50;;;24.40;99.90;;;;;;5020403;28;20828;-82
2022/08/28 10:16:50;;;;;;;11.80;10.80;;;24.50;99.90;;;;;;5020824;28;20457;-82
2022/08/28 10:19:31;;;;;;;13.23;11.93;;;24.60;99.90;;;;;;5019815;28;20457;-80
2022/08/28 10:22:10;;;;;;;11.40;10.30;;;24.70;99.90;;;;;;5026640;28;20527;-80
2022/08/28 10:25:01;;;;;;;15.23;13.93;;;24.80;99.90;;;;;;5024000;28;20437;-81
2022/08/28 10:27:42;;;;;;;14.23;12.67;;;24.90;99.90;;;;;;5022901;28;20482;-80
2022/08/28 10:30:14;;;;;;;11.97;10.70;;;25.10;99.90;;;;;;5025002;28;20453;-82
2022/08/28 10:33:07;;;;;;;10.47;9.60;;;25.50;99.90;;;;;;5031144;28;20483;-78
2022/08/28 10:35:43;;;;;;;11.33;10.47;;;25.70;99.90;;;;;;5028958;28;20486;-83
2022/08/28 10:38:15;;;;;;;10.20;9.50;;;25.80;99.90;;;;;;5028634;28;20480;-80
2022/08/28 10:40:50;;;;;;;10.60;9.70;;;25.80;99.90;;;;;;5028448;28;20462;-80
2022/08/28 10:43:23;;;;;;;11.70;10.80;;;25.70;99.90;;;;;;5026941;28;20471;-83
2022/08/28 10:45:51;;;;;;;13.80;12.53;;;25.60;99.90;;;;;;5023905;28;20807;-82
2022/08/28 10:48:24;;;;;;;14.53;13.27;;;25.40;99.90;;;;;;5023453;28;20814;-82
2022/08/28 10:50:55;;;;;;;10.87;10.07;;;25.40;99.90;;;;;;5024386;28;20846;-81
2022/08/28 10:53:28;;;;;;;9.13;8.43;;;25.50;99.90;;;;;;5027202;28;20984;-82
2022/08/28 10:55:58;;;;;;;10.10;9.20;;;25.50;99.90;;;;;;5026759;28;20508;-82
2022/08/28 10:58:27;;;;;;;10.67;9.60;;;25.70;99.90;;;;;;5023992;28;20452;-82
2022/08/28 11:00:58;;;;;;;8.83;8.13;;;25.90;99.90;;;;;;5024170;28;20455;-81
2022/08/28 11:03:27;;;;;;;13.20;11.30;;;26.00;99.30;;;;;;5022831;28;20459;-81
2022/08/28 11:06:00;;;;;;;13.83;12.63;;;26.10;99.70;;;;;;5022311;28;20455;-81
2022/08/28 11:08:32;;;;;;;57.10;52.43;;;26.00;99.40;;;;;;5024984;28;20968;-82
2022/08/28 11:11:00;;;;;;;9.97;8.90;;;26.40;99.60;;;;;;5021924;28;20456;-81
2022/08/28 11:13:49;;;;;;;9.60;8.70;;;26.90;98.20;;;;;;5026937;28;20459;-82
2022/08/28 11:16:37;;;;;;;9.77;9.00;;;27.40;95.90;;;;;;5026079;28;20447;-82
2022/08/28 11:19:38;;;;;;;9.43;8.60;;;27.80;96.10;;;;;;5025828;28;20447;-82
2022/08/28 11:22:12;;;;;;;9.93;9.00;;;28.50;96.50;;;;;;5025480;28;20475;-82
2022/08/28 11:24:53;;;;;;;8.97;8.17;;;29.10;92.90;;;;;;5024809;28;20464;-80
2022/08/28 11:27:28;;;;;;;8.53;7.83;;;29.10;92.60;;;;;;5025969;28;20497;-80
2022/08/28 11:30:00;;;;;;;8.27;7.67;;;29.00;91.00;;;;;;5029169;28;20488;-80
2022/08/28 11:32:37;;;;;;;8.77;7.80;;;29.00;92.30;;;;;;5025767;28;20487;-80
2022/08/28 11:35:26;;;;;;;8.80;8.10;;;29.30;91.10;;;;;;5026320;28;20458;-80
2022/08/28 11:37:54;;;;;;;8.90;8.07;;;28.90;90.10;;;;;;5025177;28;20453;-80
2022/08/28 11:40:50;;;;;;;9.63;8.83;;;28.70;90.70;;;;;;5025477;28;20449;-80
2022/08/28 11:43:42;;;;;;;8.97;8.17;;;28.40;91.00;;;;;;5024637;28;20507;-80
2022/08/28 11:46:25;;;;;;;9.53;8.63;;;27.90;91.20;;;;;;5019921;28;20467;-79
2022/08/28 11:48:53;;;;;;;8.23;7.63;;;27.70;91.30;;;;;;5025248;28;20973;-80
2022/08/28 11:51:39;;;;;;;9.13;8.43;;;27.80;92.60;;;;;;5024930;28;20481;-80
2022/08/28 11:54:18;;;;;;;8.93;8.10;;;28.00;92.50;;;;;;5024918;28;20438;-80
2022/08/28 11:56:59;;;;;;;9.13;8.27;;;28.10;93.20;;;;;;5024810;28;20446;-79
2022/08/28 11:59:50;;;;;;;8.00;7.30;;;28.50;92.20;;;;;;5024711;28;20459;-80
2022/08/28 12:02:47;;;;;;;8.93;7.97;;;29.00;90.50;;;;;;5016724;28;20478;-80
2022/08/28 12:05:38;;;;;;;8.63;8.00;;;29.00;90.50;;;;;;5024515;28;20462;-80
2022/08/28 12:08:05;;;;;;;8.23;7.53;;;29.40;90.30;;;;;;5024287;28;20493;-80
2022/08/28 12:10:52;;;;;;;7.67;7.07;;;29.80;89.90;;;;;;5025326;28;20464;-80
2022/08/28 12:13:46;;;;;;;8.67;7.80;;;30.10;86.00;;;;;;5026820;28;20488;-81
2022/08/28 12:16:13;;;;;;;7.37;6.87;;;30.50;85.70;;;;;;5025473;28;20450;-82
2022/08/28 12:19:04;;;;;;;7.50;7.00;;;30.90;81.80;;;;;;5027942;28;20967;-82
2022/08/28 12:21:37;;;;;;;7.43;6.80;;;30.20;81.30;;;;;;5013118;28;20851;-84
2022/08/28 12:24:15;;;;;;;8.27;7.70;;;29.90;84.10;;;;;;5032238;28;20445;-83
2022/08/28 12:26:46;;;;;;;7.70;7.00;;;30.10;85.30;;;;;;5034754;28;20491;-82
2022/08/28 12:29:28;;;;;;;8.13;7.50;;;30.50;82.40;;;;;;5032999;28;20447;-83
2022/08/28 12:32:17;;;;;;;7.20;6.60;;;30.70;81.40;;;;;;5033392;28;20468;-84
2022/08/28 12:34:51;;;;;;;9.37;8.57;;;30.80;80.80;;;;;;5033556;28;20445;-83
2022/08/28 12:37:36;;;;;;;9.23;7.33;;;30.70;82.50;;;;;;5033485;28;20453;-83
2022/08/28 12:40:12;;;;;;;7.23;6.73;;;30.80;81.80;;;;;;5032113;28;20553;-83
2022/08/28 12:42:45;;;;;;;9.40;8.50;;;31.10;79.50;;;;;;5032679;28;20482;-84
2022/08/28 12:45:24;;;;;;;7.33;6.73;;;31.10;77.70;;;;;;5033297;28;20465;-84
2022/08/28 12:47:53;;;;;;;7.77;7.27;;;31.20;77.00;;;;;;5033412;28;20488;-84
2022/08/28 12:50:30;;;;;;;8.10;7.60;;;31.70;77.10;;;;;;5033550;28;20445;-83
2022/08/28 12:52:59;;;;;;;9.30;8.50;;;32.10;75.10;;;;;;5033346;28;20556;-83
2022/08/28 12:55:27;;;;;;;8.27;7.67;;;32.00;74.60;;;;;;5032577;28;20455;-83